This is the latest recevied weather packets stored in our database for station/object KF7PIZ. If no packets are shown the sender has not sent any weather packets the latest 1 day(s).
| Time | Temp. | Humidity | Pressure | Rain* | Wind** | Luminosity | Snow |
|---|---|---|---|---|---|---|---|
| 1778006240 | 15.56° C | 68% | 1014.9 hPa | 0 mm | 0 m/s | 646 W/m² | - |
| 1778005950 | 15.56° C | 67% | 1014.8 hPa | 0 mm | 0 m/s | 531 W/m² | - |
| 1778005634 | 15° C | 65% | 1014.7 hPa | 0 mm | 0 m/s | 281 W/m² | - |
| 1778005331 | 15° C | 69% | 1015 hPa | 0 mm | 0 m/s | 586 W/m² | - |
| 1778005028 | 15.56° C | 71% | 1014.8 hPa | 0 mm | 0 m/s | 414 W/m² | - |
| 1778004726 | 15.56° C | 64% | 1014.8 hPa | 0 mm | 0 m/s | 215 W/m² | - |
| 1778004421 | 15° C | 68% | 1014.8 hPa | 0 mm | 0 m/s | 685 W/m² | - |
| 1778004119 | 15.56° C | 69% | 1014.8 hPa | 0 mm | 0 m/s | 290 W/m² | - |
| 1778003814 | 15° C | 72% | 1014.7 hPa | 0 mm | 0 m/s | 279 W/m² | - |
| 1778003511 | 13.89° C | 74% | 1014.6 hPa | 0 mm | 0 m/s | 878 W/m² | - |
| 1778003208 | 13.89° C | 75% | 1014.7 hPa | 0 mm | 0 m/s | 209 W/m² | - |
| 1778002904 | 13.33° C | 75% | 1014.6 hPa | 0 mm | 0 m/s | 199 W/m² | - |
| 1778002601 | 12.78° C | 79% | 1014.7 hPa | 0 mm | 0 m/s | 368 W/m² | - |
| 1778002297 | 12.22° C | 80% | 1014.6 hPa | 0 mm | 0 m/s | 240 W/m² | - |
| 1778001995 | 11.67° C | 77% | 1014.7 hPa | 0 mm | 0 m/s | 189 W/m² | - |
| 1778001692 | 11.67° C | 78% | 1014.7 hPa | 0 mm | 0 m/s | 180 W/m² | - |
| 1778001386 | 11.67° C | 80% | 1014.6 hPa | 0 mm | 0 m/s | 201 W/m² | - |
| 1778001084 | 11.67° C | 80% | 1014.6 hPa | 0 mm | 0 m/s | 217 W/m² | - |
| 1778000781 | 11.11° C | 81% | 1014.4 hPa | 0 mm | 0 m/s | 165 W/m² | - |
| 1778000477 | 10.56° C | 84% | 1014.5 hPa | 0 mm | 0 m/s | 288 W/m² | - |
| 1778000172 | 10.56° C | 84% | 1014.5 hPa | 0 mm | 0 m/s | 165 W/m² | - |
| 1777999868 | 10° C | 88% | 1014.5 hPa | 0 mm | 0 m/s | 109 W/m² | - |
| 1777999564 | 10° C | 92% | 1014.4 hPa | 0 mm | 0 m/s | 129 W/m² | - |
| 1777999262 | 9.44° C | 93% | 1014.4 hPa | 0 mm | 0 m/s | 97 W/m² | - |
| 1777998960 | 9.44° C | 94% | 1014.8 hPa | 0 mm | 0 m/s | 101 W/m² | - |
* Rain latest hour (hover to see other rain measurements)
** Current wind speed in m/s (hover to see current wind gust speed)